sensor_id;sensor_type;location;lat;lon;timestamp;P1;durP1;ratioP1;P2;durP2;ratioP2
8331;SDS011;4203;48.144;14.118;2023-03-31T00:02:02;5.00;;;4.50;;
8331;SDS011;4203;48.144;14.118;2023-03-31T00:04:31;4.63;;;4.23;;
8331;SDS011;4203;48.144;14.118;2023-03-31T00:06:59;3.93;;;3.53;;
8331;SDS011;4203;48.144;14.118;2023-03-31T00:09:26;3.87;;;3.53;;
8331;SDS011;4203;48.144;14.118;2023-03-31T00:11:54;4.00;;;3.63;;
8331;SDS011;4203;48.144;14.118;2023-03-31T00:14:22;4.20;;;3.80;;
8331;SDS011;4203;48.144;14.118;2023-03-31T00:16:49;4.70;;;4.00;;
8331;SDS011;4203;48.144;14.118;2023-03-31T00:19:16;3.87;;;3.43;;
8331;SDS011;4203;48.144;14.118;2023-03-31T00:21:44;4.13;;;3.73;;
8331;SDS011;4203;48.144;14.118;2023-03-31T00:24:12;3.77;;;3.47;;
8331;SDS011;4203;48.144;14.118;2023-03-31T00:26:40;4.93;;;3.90;;
8331;SDS011;4203;48.144;14.118;2023-03-31T00:29:08;5.63;;;4.80;;
8331;SDS011;4203;48.144;14.118;2023-03-31T00:31:38;6.40;;;3.53;;
8331;SDS011;4203;48.144;14.118;2023-03-31T00:34:06;4.13;;;3.80;;
8331;SDS011;4203;48.144;14.118;2023-03-31T00:36:33;4.43;;;3.30;;
8331;SDS011;4203;48.144;14.118;2023-03-31T00:39:11;3.93;;;3.50;;
8331;SDS011;4203;48.144;14.118;2023-03-31T00:41:39;4.40;;;3.67;;
8331;SDS011;4203;48.144;14.118;2023-03-31T00:44:08;3.97;;;3.57;;
8331;SDS011;4203;48.144;14.118;2023-03-31T00:46:41;5.70;;;3.53;;
8331;SDS011;4203;48.144;14.118;2023-03-31T00:49:16;5.43;;;3.27;;
8331;SDS011;4203;48.144;14.118;2023-03-31T00:51:47;4.10;;;3.70;;
8331;SDS011;4203;48.144;14.118;2023-03-31T00:54:18;7.33;;;4.30;;
8331;SDS011;4203;48.144;14.118;2023-03-31T00:56:47;7.97;;;4.10;;
8331;SDS011;4203;48.144;14.118;2023-03-31T00:59:19;9.30;;;4.67;;
8331;SDS011;4203;48.144;14.118;2023-03-31T01:01:53;5.60;;;3.90;;
8331;SDS011;4203;48.144;14.118;2023-03-31T01:04:26;4.93;;;4.00;;
8331;SDS011;4203;48.144;14.118;2023-03-31T01:06:58;5.13;;;3.97;;
8331;SDS011;4203;48.144;14.118;2023-03-31T01:09:30;7.10;;;3.50;;
8331;SDS011;4203;48.144;14.118;2023-03-31T01:12:00;5.77;;;4.00;;
8331;SDS011;4203;48.144;14.118;2023-03-31T01:14:29;6.67;;;3.80;;
8331;SDS011;4203;48.144;14.118;2023-03-31T01:16:59;5.73;;;3.83;;
8331;SDS011;4203;48.144;14.118;2023-03-31T01:19:29;5.47;;;3.93;;
8331;SDS011;4203;48.144;14.118;2023-03-31T01:22:22;5.90;;;3.70;;
8331;SDS011;4203;48.144;14.118;2023-03-31T01:28:32;6.20;;;4.30;;
8331;SDS011;4203;48.144;14.118;2023-03-31T01:31:17;4.50;;;4.10;;
8331;SDS011;4203;48.144;14.118;2023-03-31T01:40:29;5.00;;;3.77;;
8331;SDS011;4203;48.144;14.118;2023-03-31T01:43:09;6.70;;;3.77;;
8331;SDS011;4203;48.144;14.118;2023-03-31T01:45:43;4.13;;;3.27;;
8331;SDS011;4203;48.144;14.118;2023-03-31T01:48:21;5.67;;;3.47;;
8331;SDS011;4203;48.144;14.118;2023-03-31T01:50:58;4.43;;;3.47;;
8331;SDS011;4203;48.144;14.118;2023-03-31T01:53:28;7.33;;;4.20;;
8331;SDS011;4203;48.144;14.118;2023-03-31T01:56:03;5.20;;;3.60;;
8331;SDS011;4203;48.144;14.118;2023-03-31T01:58:34;3.47;;;3.17;;
8331;SDS011;4203;48.144;14.118;2023-03-31T02:01:05;6.87;;;4.07;;
8331;SDS011;4203;48.144;14.118;2023-03-31T02:03:41;7.00;;;3.90;;
8331;SDS011;4203;48.144;14.118;2023-03-31T02:06:13;4.30;;;3.43;;
8331;SDS011;4203;48.144;14.118;2023-03-31T02:08:47;3.77;;;3.47;;
8331;SDS011;4203;48.144;14.118;2023-03-31T02:11:19;3.60;;;3.20;;
8331;SDS011;4203;48.144;14.118;2023-03-31T02:13:47;7.57;;;3.60;;
8331;SDS011;4203;48.144;14.118;2023-03-31T02:16:18;6.73;;;4.60;;
8331;SDS011;4203;48.144;14.118;2023-03-31T02:18:48;5.13;;;4.63;;
8331;SDS011;4203;48.144;14.118;2023-03-31T02:21:19;8.13;;;3.53;;
8331;SDS011;4203;48.144;14.118;2023-03-31T02:23:48;4.77;;;3.40;;
8331;SDS011;4203;48.144;14.118;2023-03-31T02:26:19;4.30;;;3.90;;
8331;SDS011;4203;48.144;14.118;2023-03-31T02:28:50;5.00;;;4.07;;
8331;SDS011;4203;48.144;14.118;2023-03-31T02:31:20;4.83;;;4.27;;
8331;SDS011;4203;48.144;14.118;2023-03-31T02:33:55;7.90;;;5.63;;
8331;SDS011;4203;48.144;14.118;2023-03-31T02:36:22;5.17;;;4.70;;
8331;SDS011;4203;48.144;14.118;2023-03-31T02:38:51;5.30;;;4.80;;
8331;SDS011;4203;48.144;14.118;2023-03-31T02:41:22;6.00;;;5.50;;
8331;SDS011;4203;48.144;14.118;2023-03-31T02:43:49;6.37;;;5.77;;
8331;SDS011;4203;48.144;14.118;2023-03-31T02:46:17;7.13;;;6.53;;
8331;SDS011;4203;48.144;14.118;2023-03-31T02:48:44;9.17;;;7.40;;
8331;SDS011;4203;48.144;14.118;2023-03-31T02:54:27;7.43;;;6.60;;
8331;SDS011;4203;48.144;14.118;2023-03-31T02:57:22;7.40;;;6.30;;
8331;SDS011;4203;48.144;14.118;2023-03-31T03:00:05;8.47;;;7.07;;
8331;SDS011;4203;48.144;14.118;2023-03-31T03:02:44;8.13;;;6.97;;
8331;SDS011;4203;48.144;14.118;2023-03-31T03:05:21;7.37;;;6.63;;
8331;SDS011;4203;48.144;14.118;2023-03-31T03:08:01;7.17;;;6.03;;
8331;SDS011;4203;48.144;14.118;2023-03-31T03:10:39;7.47;;;6.53;;
8331;SDS011;4203;48.144;14.118;2023-03-31T03:13:17;7.23;;;6.53;;
8331;SDS011;4203;48.144;14.118;2023-03-31T03:15:50;7.27;;;6.67;;
8331;SDS011;4203;48.144;14.118;2023-03-31T03:18:26;7.23;;;6.53;;
8331;SDS011;4203;48.144;14.118;2023-03-31T03:20:53;7.77;;;7.07;;
8331;SDS011;4203;48.144;14.118;2023-03-31T03:23:20;7.53;;;6.83;;
8331;SDS011;4203;48.144;14.118;2023-03-31T03:25:47;7.57;;;6.57;;
8331;SDS011;4203;48.144;14.118;2023-03-31T03:28:16;7.63;;;6.93;;
8331;SDS011;4203;48.144;14.118;2023-03-31T03:30:44;7.07;;;6.33;;
8331;SDS011;4203;48.144;14.118;2023-03-31T03:33:11;7.93;;;7.23;;
8331;SDS011;4203;48.144;14.118;2023-03-31T03:35:40;10.37;;;8.23;;
8331;SDS011;4203;48.144;14.118;2023-03-31T03:38:08;9.30;;;8.40;;
8331;SDS011;4203;48.144;14.118;2023-03-31T03:40:35;8.73;;;7.70;;
8331;SDS011;4203;48.144;14.118;2023-03-31T03:43:02;9.60;;;8.27;;
8331;SDS011;4203;48.144;14.118;2023-03-31T03:45:30;9.10;;;8.20;;
8331;SDS011;4203;48.144;14.118;2023-03-31T03:47:58;9.03;;;8.13;;
8331;SDS011;4203;48.144;14.118;2023-03-31T03:50:25;8.13;;;7.30;;
8331;SDS011;4203;48.144;14.118;2023-03-31T03:52:52;8.43;;;7.70;;
8331;SDS011;4203;48.144;14.118;2023-03-31T03:55:19;8.00;;;7.23;;
8331;SDS011;4203;48.144;14.118;2023-03-31T03:57:47;8.20;;;7.37;;
8331;SDS011;4203;48.144;14.118;2023-03-31T04:00:14;7.70;;;6.90;;
8331;SDS011;4203;48.144;14.118;2023-03-31T04:02:43;7.13;;;6.53;;
8331;SDS011;4203;48.144;14.118;2023-03-31T04:05:11;7.10;;;6.23;;
8331;SDS011;4203;48.144;14.118;2023-03-31T04:07:38;7.20;;;5.93;;
8331;SDS011;4203;48.144;14.118;2023-03-31T04:10:05;7.67;;;7.07;;
8331;SDS011;4203;48.144;14.118;2023-03-31T04:12:34;9.83;;;6.97;;
8331;SDS011;4203;48.144;14.118;2023-03-31T04:15:02;7.27;;;6.50;;
8331;SDS011;4203;48.144;14.118;2023-03-31T04:17:30;7.53;;;6.93;;
8331;SDS011;4203;48.144;14.118;2023-03-31T04:20:00;7.63;;;6.43;;
8331;SDS011;4203;48.144;14.118;2023-03-31T04:22:30;7.23;;;6.53;;
8331;SDS011;4203;48.144;14.118;2023-03-31T04:25:00;7.00;;;6.40;;
8331;SDS011;4203;48.144;14.118;2023-03-31T04:27:28;7.10;;;6.50;;
8331;SDS011;4203;48.144;14.118;2023-03-31T04:29:57;8.10;;;7.37;;
8331;SDS011;4203;48.144;14.118;2023-03-31T04:32:24;7.83;;;7.07;;
8331;SDS011;4203;48.144;14.118;2023-03-31T04:34:52;8.50;;;7.70;;
8331;SDS011;4203;48.144;14.118;2023-03-31T04:37:28;8.40;;;7.60;;
8331;SDS011;4203;48.144;14.118;2023-03-31T04:39:58;9.27;;;8.33;;
8331;SDS011;4203;48.144;14.118;2023-03-31T04:42:32;9.57;;;8.23;;
8331;SDS011;4203;48.144;14.118;2023-03-31T04:44:59;8.53;;;7.17;;
8331;SDS011;4203;48.144;14.118;2023-03-31T04:47:27;7.80;;;7.10;;
8331;SDS011;4203;48.144;14.118;2023-03-31T04:49:54;5.93;;;5.27;;
8331;SDS011;4203;48.144;14.118;2023-03-31T04:52:21;5.93;;;5.03;;
8331;SDS011;4203;48.144;14.118;2023-03-31T04:54:50;8.00;;;7.30;;
8331;SDS011;4203;48.144;14.118;2023-03-31T04:57:17;7.30;;;6.63;;
8331;SDS011;4203;48.144;14.118;2023-03-31T04:59:44;9.63;;;6.73;;
8331;SDS011;4203;48.144;14.118;2023-03-31T05:02:11;8.63;;;7.63;;
8331;SDS011;4203;48.144;14.118;2023-03-31T05:04:39;7.20;;;6.60;;
8331;SDS011;4203;48.144;14.118;2023-03-31T05:07:06;9.23;;;7.53;;
8331;SDS011;4203;48.144;14.118;2023-03-31T05:09:34;11.67;;;9.43;;
8331;SDS011;4203;48.144;14.118;2023-03-31T05:12:02;11.03;;;8.63;;
8331;SDS011;4203;48.144;14.118;2023-03-31T05:14:30;8.87;;;8.00;;
8331;SDS011;4203;48.144;14.118;2023-03-31T05:16:57;8.10;;;7.30;;
8331;SDS011;4203;48.144;14.118;2023-03-31T05:19:24;10.03;;;8.40;;
8331;SDS011;4203;48.144;14.118;2023-03-31T05:21:51;9.10;;;8.30;;
8331;SDS011;4203;48.144;14.118;2023-03-31T05:24:18;8.90;;;8.07;;
8331;SDS011;4203;48.144;14.118;2023-03-31T05:26:45;11.80;;;7.67;;
8331;SDS011;4203;48.144;14.118;2023-03-31T05:29:18;11.17;;;8.93;;
8331;SDS011;4203;48.144;14.118;2023-03-31T05:31:45;11.17;;;9.57;;
8331;SDS011;4203;48.144;14.118;2023-03-31T05:34:13;12.07;;;10.67;;
8331;SDS011;4203;48.144;14.118;2023-03-31T05:36:40;12.07;;;10.90;;
8331;SDS011;4203;48.144;14.118;2023-03-31T05:39:08;12.37;;;11.27;;
8331;SDS011;4203;48.144;14.118;2023-03-31T05:41:35;11.03;;;9.93;;
8331;SDS011;4203;48.144;14.118;2023-03-31T05:44:03;9.50;;;8.40;;
8331;SDS011;4203;48.144;14.118;2023-03-31T05:46:31;9.20;;;8.20;;
8331;SDS011;4203;48.144;14.118;2023-03-31T05:48:58;8.93;;;8.00;;
8331;SDS011;4203;48.144;14.118;2023-03-31T05:51:26;11.37;;;10.07;;
8331;SDS011;4203;48.144;14.118;2023-03-31T05:53:53;12.47;;;10.70;;
8331;SDS011;4203;48.144;14.118;2023-03-31T05:56:20;11.07;;;8.70;;
8331;SDS011;4203;48.144;14.118;2023-03-31T05:58:48;8.93;;;8.00;;
8331;SDS011;4203;48.144;14.118;2023-03-31T06:01:15;9.87;;;8.70;;
8331;SDS011;4203;48.144;14.118;2023-03-31T06:03:45;10.47;;;9.27;;
8331;SDS011;4203;48.144;14.118;2023-03-31T06:06:13;11.47;;;9.23;;
8331;SDS011;4203;48.144;14.118;2023-03-31T06:08:40;12.43;;;10.77;;
8331;SDS011;4203;48.144;14.118;2023-03-31T06:11:09;11.20;;;10.20;;
8331;SDS011;4203;48.144;14.118;2023-03-31T06:13:38;12.93;;;11.67;;
8331;SDS011;4203;48.144;14.118;2023-03-31T06:16:05;11.20;;;10.20;;
8331;SDS011;4203;48.144;14.118;2023-03-31T06:18:33;11.30;;;10.20;;
8331;SDS011;4203;48.144;14.118;2023-03-31T06:21:02;12.80;;;11.47;;
8331;SDS011;4203;48.144;14.118;2023-03-31T06:23:30;12.13;;;10.00;;
8331;SDS011;4203;48.144;14.118;2023-03-31T06:25:59;11.40;;;10.20;;
8331;SDS011;4203;48.144;14.118;2023-03-31T06:28:27;10.00;;;9.00;;
8331;SDS011;4203;48.144;14.118;2023-03-31T06:30:58;10.57;;;9.47;;
8331;SDS011;4203;48.144;14.118;2023-03-31T06:33:26;12.93;;;11.73;;
8331;SDS011;4203;48.144;14.118;2023-03-31T06:35:54;13.53;;;12.13;;
8331;SDS011;4203;48.144;14.118;2023-03-31T06:38:23;13.63;;;12.23;;
8331;SDS011;4203;48.144;14.118;2023-03-31T06:40:50;14.87;;;12.37;;
8331;SDS011;4203;48.144;14.118;2023-03-31T06:43:17;13.20;;;11.13;;
8331;SDS011;4203;48.144;14.118;2023-03-31T06:45:45;14.05;;;11.77;;
8331;SDS011;4203;48.144;14.118;2023-03-31T06:48:12;11.48;;;10.38;;
8331;SDS011;4203;48.144;14.118;2023-03-31T06:50:40;13.83;;;10.83;;
8331;SDS011;4203;48.144;14.118;2023-03-31T06:53:07;11.05;;;10.05;;
8331;SDS011;4203;48.144;14.118;2023-03-31T06:55:36;11.40;;;9.95;;
8331;SDS011;4203;48.144;14.118;2023-03-31T06:58:03;10.52;;;9.52;;
8331;SDS011;4203;48.144;14.118;2023-03-31T07:00:31;12.43;;;9.32;;
8331;SDS011;4203;48.144;14.118;2023-03-31T07:02:58;9.75;;;8.77;;
8331;SDS011;4203;48.144;14.118;2023-03-31T07:05:28;9.45;;;8.52;;
8331;SDS011;4203;48.144;14.118;2023-03-31T07:07:56;10.02;;;9.07;;
8331;SDS011;4203;48.144;14.118;2023-03-31T07:10:25;13.13;;;11.90;;
8331;SDS011;4203;48.144;14.118;2023-03-31T07:12:55;12.75;;;10.63;;
8331;SDS011;4203;48.144;14.118;2023-03-31T07:15:23;12.48;;;11.18;;
8331;SDS011;4203;48.144;14.118;2023-03-31T07:17:54;12.95;;;10.52;;
8331;SDS011;4203;48.144;14.118;2023-03-31T07:20:26;12.20;;;10.93;;
8331;SDS011;4203;48.144;14.118;2023-03-31T07:22:54;14.45;;;10.88;;
8331;SDS011;4203;48.144;14.118;2023-03-31T07:25:22;12.60;;;11.23;;
8331;SDS011;4203;48.144;14.118;2023-03-31T07:27:49;11.82;;;10.73;;
8331;SDS011;4203;48.144;14.118;2023-03-31T07:30:18;14.43;;;12.07;;
8331;SDS011;4203;48.144;14.118;2023-03-31T07:32:46;15.32;;;11.93;;
8331;SDS011;4203;48.144;14.118;2023-03-31T07:35:14;13.80;;;12.20;;
8331;SDS011;4203;48.144;14.118;2023-03-31T07:37:42;15.55;;;11.60;;
8331;SDS011;4203;48.144;14.118;2023-03-31T07:40:11;12.82;;;11.52;;
8331;SDS011;4203;48.144;14.118;2023-03-31T07:42:40;15.25;;;11.95;;
8331;SDS011;4203;48.144;14.118;2023-03-31T07:45:09;10.60;;;9.55;;
8331;SDS011;4203;48.144;14.118;2023-03-31T07:47:37;9.63;;;7.95;;
8331;SDS011;4203;48.144;14.118;2023-03-31T07:50:05;11.98;;;9.00;;
8331;SDS011;4203;48.144;14.118;2023-03-31T07:52:34;9.88;;;8.73;;
8331;SDS011;4203;48.144;14.118;2023-03-31T07:55:01;9.85;;;8.95;;
8331;SDS011;4203;48.144;14.118;2023-03-31T07:57:28;10.13;;;9.00;;
8331;SDS011;4203;48.144;14.118;2023-03-31T07:59:55;9.13;;;8.23;;
8331;SDS011;4203;48.144;14.118;2023-03-31T08:02:23;9.75;;;8.20;;
8331;SDS011;4203;48.144;14.118;2023-03-31T08:04:51;8.32;;;7.53;;
8331;SDS011;4203;48.144;14.118;2023-03-31T08:07:18;10.60;;;8.35;;
8331;SDS011;4203;48.144;14.118;2023-03-31T08:09:45;9.70;;;7.82;;
8331;SDS011;4203;48.144;14.118;2023-03-31T08:12:13;13.15;;;8.50;;
8331;SDS011;4203;48.144;14.118;2023-03-31T08:14:41;9.48;;;7.97;;
8331;SDS011;4203;48.144;14.118;2023-03-31T08:17:08;10.02;;;9.02;;
8331;SDS011;4203;48.144;14.118;2023-03-31T08:19:36;8.95;;;8.05;;
8331;SDS011;4203;48.144;14.118;2023-03-31T08:22:04;9.77;;;8.35;;
8331;SDS011;4203;48.144;14.118;2023-03-31T08:24:32;9.98;;;8.55;;
8331;SDS011;4203;48.144;14.118;2023-03-31T08:26:59;8.43;;;7.60;;
8331;SDS011;4203;48.144;14.118;2023-03-31T08:29:26;8.02;;;7.43;;
8331;SDS011;4203;48.144;14.118;2023-03-31T08:31:53;9.82;;;8.35;;
8331;SDS011;4203;48.144;14.118;2023-03-31T08:34:20;9.85;;;8.45;;
8331;SDS011;4203;48.144;14.118;2023-03-31T08:36:47;9.25;;;8.18;;
8331;SDS011;4203;48.144;14.118;2023-03-31T08:39:16;9.30;;;8.40;;
8331;SDS011;4203;48.144;14.118;2023-03-31T08:41:49;11.07;;;7.63;;
8331;SDS011;4203;48.144;14.118;2023-03-31T08:44:24;9.18;;;8.27;;
8331;SDS011;4203;48.144;14.118;2023-03-31T08:46:56;11.05;;;8.85;;
8331;SDS011;4203;48.144;14.118;2023-03-31T08:49:26;12.27;;;8.15;;
8331;SDS011;4203;48.144;14.118;2023-03-31T08:51:57;9.23;;;7.93;;
8331;SDS011;4203;48.144;14.118;2023-03-31T08:54:30;11.18;;;8.25;;
8331;SDS011;4203;48.144;14.118;2023-03-31T08:56:59;29.55;;;19.88;;
8331;SDS011;4203;48.144;14.118;2023-03-31T08:59:29;9.75;;;8.38;;
8331;SDS011;4203;48.144;14.118;2023-03-31T09:01:59;16.58;;;12.27;;
8331;SDS011;4203;48.144;14.118;2023-03-31T09:04:41;12.88;;;11.27;;
8331;SDS011;4203;48.144;14.118;2023-03-31T09:07:18;13.55;;;10.60;;
8331;SDS011;4203;48.144;14.118;2023-03-31T09:09:56;12.02;;;9.90;;
8331;SDS011;4203;48.144;14.118;2023-03-31T09:12:30;11.43;;;8.98;;
8331;SDS011;4203;48.144;14.118;2023-03-31T09:15:08;9.50;;;8.52;;
8331;SDS011;4203;48.144;14.118;2023-03-31T09:17:37;10.20;;;9.20;;
8331;SDS011;4203;48.144;14.118;2023-03-31T09:20:11;11.43;;;9.93;;
8331;SDS011;4203;48.144;14.118;2023-03-31T09:22:44;12.15;;;10.70;;
8331;SDS011;4203;48.144;14.118;2023-03-31T09:25:15;14.27;;;12.02;;
8331;SDS011;4203;48.144;14.118;2023-03-31T09:27:47;15.43;;;13.00;;
8331;SDS011;4203;48.144;14.118;2023-03-31T09:30:19;16.55;;;12.43;;
8331;SDS011;4203;48.144;14.118;2023-03-31T09:32:51;16.15;;;11.95;;
8331;SDS011;4203;48.144;14.118;2023-03-31T09:35:24;16.13;;;13.07;;
8331;SDS011;4203;48.144;14.118;2023-03-31T09:37:52;15.63;;;13.15;;
8331;SDS011;4203;48.144;14.118;2023-03-31T09:40:23;15.18;;;13.52;;
8331;SDS011;4203;48.144;14.118;2023-03-31T09:42:53;18.15;;;13.50;;
8331;SDS011;4203;48.144;14.118;2023-03-31T09:45:24;16.05;;;13.63;;
8331;SDS011;4203;48.144;14.118;2023-03-31T09:47:52;34.80;;;24.75;;
8331;SDS011;4203;48.144;14.118;2023-03-31T09:50:21;16.35;;;13.93;;
8331;SDS011;4203;48.144;14.118;2023-03-31T09:52:49;18.73;;;12.68;;
8331;SDS011;4203;48.144;14.118;2023-03-31T09:55:19;16.00;;;12.90;;
8331;SDS011;4203;48.144;14.118;2023-03-31T09:57:49;15.73;;;13.48;;
8331;SDS011;4203;48.144;14.118;2023-03-31T10:00:18;60.90;;;44.38;;
8331;SDS011;4203;48.144;14.118;2023-03-31T10:02:48;18.30;;;16.40;;
8331;SDS011;4203;48.144;14.118;2023-03-31T10:05:21;18.48;;;14.13;;
8331;SDS011;4203;48.144;14.118;2023-03-31T10:08:08;15.55;;;13.73;;
8331;SDS011;4203;48.144;14.118;2023-03-31T10:10:47;13.27;;;11.75;;
8331;SDS011;4203;48.144;14.118;2023-03-31T10:13:18;14.55;;;12.95;;
8331;SDS011;4203;48.144;14.118;2023-03-31T10:15:49;14.98;;;13.38;;
8331;SDS011;4203;48.144;14.118;2023-03-31T10:18:32;14.63;;;13.13;;
8331;SDS011;4203;48.144;14.118;2023-03-31T10:21:00;13.35;;;11.95;;
8331;SDS011;4203;48.144;14.118;2023-03-31T10:23:30;13.02;;;11.70;;
8331;SDS011;4203;48.144;14.118;2023-03-31T10:25:59;12.43;;;9.88;;
8331;SDS011;4203;48.144;14.118;2023-03-31T10:28:31;9.63;;;8.68;;
8331;SDS011;4203;48.144;14.118;2023-03-31T10:31:00;9.27;;;7.68;;
8331;SDS011;4203;48.144;14.118;2023-03-31T10:33:28;9.07;;;7.22;;
8331;SDS011;4203;48.144;14.118;2023-03-31T10:35:59;9.05;;;6.35;;
8331;SDS011;4203;48.144;14.118;2023-03-31T10:38:33;7.65;;;6.90;;
8331;SDS011;4203;48.144;14.118;2023-03-31T10:41:04;8.85;;;5.68;;
8331;SDS011;4203;48.144;14.118;2023-03-31T10:43:34;9.13;;;6.35;;
8331;SDS011;4203;48.144;14.118;2023-03-31T10:46:05;9.73;;;6.03;;
8331;SDS011;4203;48.144;14.118;2023-03-31T10:48:33;6.60;;;6.05;;
8331;SDS011;4203;48.144;14.118;2023-03-31T10:51:03;9.65;;;6.53;;
8331;SDS011;4203;48.144;14.118;2023-03-31T10:53:39;6.43;;;5.78;;
8331;SDS011;4203;48.144;14.118;2023-03-31T10:56:10;7.82;;;5.65;;
8331;SDS011;4203;48.144;14.118;2023-03-31T10:58:50;8.85;;;7.07;;
8331;SDS011;4203;48.144;14.118;2023-03-31T11:01:41;8.20;;;5.63;;
8331;SDS011;4203;48.144;14.118;2023-03-31T11:04:31;7.45;;;5.95;;
8331;SDS011;4203;48.144;14.118;2023-03-31T11:07:08;8.25;;;5.18;;
8331;SDS011;4203;48.144;14.118;2023-03-31T11:09:44;6.68;;;5.38;;
8331;SDS011;4203;48.144;14.118;2023-03-31T11:12:23;8.52;;;5.80;;
8331;SDS011;4203;48.144;14.118;2023-03-31T11:15:10;8.90;;;5.63;;
8331;SDS011;4203;48.144;14.118;2023-03-31T11:17:48;9.68;;;5.60;;
8331;SDS011;4203;48.144;14.118;2023-03-31T11:20:27;6.10;;;4.90;;
8331;SDS011;4203;48.144;14.118;2023-03-31T11:23:00;8.07;;;5.70;;
8331;SDS011;4203;48.144;14.118;2023-03-31T11:25:33;5.88;;;5.18;;
8331;SDS011;4203;48.144;14.118;2023-03-31T11:28:23;7.22;;;5.13;;
8331;SDS011;4203;48.144;14.118;2023-03-31T11:31:02;5.95;;;5.35;;
8331;SDS011;4203;48.144;14.118;2023-03-31T11:33:43;5.25;;;4.75;;
8331;SDS011;4203;48.144;14.118;2023-03-31T11:36:25;5.70;;;4.63;;
8331;SDS011;4203;48.144;14.118;2023-03-31T11:39:14;5.55;;;4.05;;
8331;SDS011;4203;48.144;14.118;2023-03-31T11:41:49;8.02;;;4.70;;
8331;SDS011;4203;48.144;14.118;2023-03-31T11:44:20;7.78;;;4.10;;
8331;SDS011;4203;48.144;14.118;2023-03-31T11:46:51;5.80;;;4.47;;
8331;SDS011;4203;48.144;14.118;2023-03-31T11:49:21;7.20;;;4.20;;
8331;SDS011;4203;48.144;14.118;2023-03-31T11:51:52;6.20;;;4.60;;
8331;SDS011;4203;48.144;14.118;2023-03-31T11:54:24;5.25;;;4.72;;
8331;SDS011;4203;48.144;14.118;2023-03-31T11:56:54;6.07;;;4.43;;
8331;SDS011;4203;48.144;14.118;2023-03-31T11:59:23;6.72;;;4.50;;
8331;SDS011;4203;48.144;14.118;2023-03-31T12:01:56;5.13;;;4.70;;
8331;SDS011;4203;48.144;14.118;2023-03-31T12:04:31;7.90;;;5.18;;
8331;SDS011;4203;48.144;14.118;2023-03-31T12:07:03;5.32;;;4.82;;
8331;SDS011;4203;48.144;14.118;2023-03-31T12:09:38;5.72;;;5.00;;
8331;SDS011;4203;48.144;14.118;2023-03-31T12:12:13;6.95;;;5.63;;
8331;SDS011;4203;48.144;14.118;2023-03-31T12:14:45;7.47;;;4.85;;
8331;SDS011;4203;48.144;14.118;2023-03-31T12:17:19;5.82;;;5.22;;
8331;SDS011;4203;48.144;14.118;2023-03-31T12:19:51;8.60;;;5.40;;
8331;SDS011;4203;48.144;14.118;2023-03-31T12:22:21;5.82;;;5.32;;
8331;SDS011;4203;48.144;14.118;2023-03-31T12:24:51;5.57;;;5.03;;
8331;SDS011;4203;48.144;14.118;2023-03-31T12:27:19;7.15;;;5.55;;
8331;SDS011;4203;48.144;14.118;2023-03-31T12:29:53;6.30;;;5.70;;
8331;SDS011;4203;48.144;14.118;2023-03-31T12:32:25;6.70;;;5.20;;
8331;SDS011;4203;48.144;14.118;2023-03-31T12:34:54;5.88;;;5.38;;
8331;SDS011;4203;48.144;14.118;2023-03-31T12:37:34;7.30;;;5.35;;
8331;SDS011;4203;48.144;14.118;2023-03-31T12:40:19;5.80;;;5.20;;
8331;SDS011;4203;48.144;14.118;2023-03-31T12:43:01;5.90;;;4.97;;
8331;SDS011;4203;48.144;14.118;2023-03-31T12:45:42;5.68;;;5.03;;
8331;SDS011;4203;48.144;14.118;2023-03-31T12:51:17;3.28;;;2.65;;
8331;SDS011;4203;48.144;14.118;2023-03-31T12:53:57;5.00;;;3.55;;
8331;SDS011;4203;48.144;14.118;2023-03-31T12:59:33;5.13;;;3.42;;
8331;SDS011;4203;48.144;14.118;2023-03-31T13:02:19;2.97;;;2.78;;
8331;SDS011;4203;48.144;14.118;2023-03-31T13:04:52;4.18;;;3.45;;
8331;SDS011;4203;48.144;14.118;2023-03-31T13:10:24;3.20;;;2.80;;
8331;SDS011;4203;48.144;14.118;2023-03-31T13:12:55;3.42;;;2.90;;
8331;SDS011;4203;48.144;14.118;2023-03-31T13:15:31;5.68;;;3.13;;
8331;SDS011;4203;48.144;14.118;2023-03-31T13:17:59;2.97;;;2.70;;
8331;SDS011;4203;48.144;14.118;2023-03-31T13:20:40;2.80;;;2.67;;
8331;SDS011;4203;48.144;14.118;2023-03-31T13:23:13;3.20;;;2.60;;
8331;SDS011;4203;48.144;14.118;2023-03-31T13:25:45;2.55;;;2.42;;
8331;SDS011;4203;48.144;14.118;2023-03-31T13:28:30;5.50;;;2.63;;
8331;SDS011;4203;48.144;14.118;2023-03-31T13:31:01;2.88;;;2.58;;
8331;SDS011;4203;48.144;14.118;2023-03-31T13:33:33;2.58;;;2.38;;
8331;SDS011;4203;48.144;14.118;2023-03-31T13:36:18;3.38;;;2.15;;
8331;SDS011;4203;48.144;14.118;2023-03-31T13:42:17;1.95;;;1.48;;
8331;SDS011;4203;48.144;14.118;2023-03-31T13:45:10;2.30;;;2.10;;
8331;SDS011;4203;48.144;14.118;2023-03-31T13:50:52;2.20;;;2.10;;
8331;SDS011;4203;48.144;14.118;2023-03-31T13:53:41;2.75;;;1.92;;
8331;SDS011;4203;48.144;14.118;2023-03-31T13:56:40;2.25;;;2.00;;
8331;SDS011;4203;48.144;14.118;2023-03-31T13:59:32;2.13;;;2.03;;
8331;SDS011;4203;48.144;14.118;2023-03-31T14:02:24;3.83;;;2.73;;
8331;SDS011;4203;48.144;14.118;2023-03-31T14:05:00;3.30;;;3.10;;
8331;SDS011;4203;48.144;14.118;2023-03-31T14:07:48;4.13;;;3.47;;
8331;SDS011;4203;48.144;14.118;2023-03-31T14:10:26;4.47;;;3.00;;
8331;SDS011;4203;48.144;14.118;2023-03-31T14:13:06;3.97;;;3.67;;
8331;SDS011;4203;48.144;14.118;2023-03-31T14:15:35;3.28;;;2.97;;
8331;SDS011;4203;48.144;14.118;2023-03-31T14:18:05;4.30;;;3.15;;
8331;SDS011;4203;48.144;14.118;2023-03-31T14:20:40;3.10;;;2.80;;
8331;SDS011;4203;48.144;14.118;2023-03-31T14:23:34;3.33;;;3.05;;
8331;SDS011;4203;48.144;14.118;2023-03-31T14:26:17;4.45;;;3.30;;
8331;SDS011;4203;48.144;14.118;2023-03-31T14:29:02;2.97;;;2.78;;
8331;SDS011;4203;48.144;14.118;2023-03-31T14:31:37;2.97;;;2.50;;
8331;SDS011;4203;48.144;14.118;2023-03-31T14:37:06;3.13;;;2.90;;
8331;SDS011;4203;48.144;14.118;2023-03-31T14:39:37;3.40;;;3.03;;
8331;SDS011;4203;48.144;14.118;2023-03-31T14:42:10;3.40;;;3.10;;
8331;SDS011;4203;48.144;14.118;2023-03-31T14:44:40;4.13;;;2.67;;
8331;SDS011;4203;48.144;14.118;2023-03-31T14:47:13;4.35;;;2.97;;
8331;SDS011;4203;48.144;14.118;2023-03-31T14:49:41;2.97;;;2.78;;
8331;SDS011;4203;48.144;14.118;2023-03-31T14:52:12;5.53;;;2.88;;
8331;SDS011;4203;48.144;14.118;2023-03-31T14:54:43;3.70;;;3.40;;
8331;SDS011;4203;48.144;14.118;2023-03-31T14:57:14;3.83;;;2.78;;
8331;SDS011;4203;48.144;14.118;2023-03-31T14:59:43;3.40;;;3.10;;
8331;SDS011;4203;48.144;14.118;2023-03-31T15:02:13;3.03;;;2.80;;
8331;SDS011;4203;48.144;14.118;2023-03-31T15:04:43;3.30;;;3.00;;
8331;SDS011;4203;48.144;14.118;2023-03-31T15:07:15;3.88;;;2.80;;
8331;SDS011;4203;48.144;14.118;2023-03-31T15:09:43;4.43;;;3.30;;
8331;SDS011;4203;48.144;14.118;2023-03-31T15:12:16;6.88;;;3.75;;
8331;SDS011;4203;48.144;14.118;2023-03-31T15:14:46;3.92;;;3.45;;
8331;SDS011;4203;48.144;14.118;2023-03-31T15:17:19;3.28;;;3.08;;
8331;SDS011;4203;48.144;14.118;2023-03-31T15:19:55;3.08;;;2.78;;
8331;SDS011;4203;48.144;14.118;2023-03-31T15:22:23;5.35;;;2.30;;
8331;SDS011;4203;48.144;14.118;2023-03-31T15:24:52;4.10;;;2.30;;
8331;SDS011;4203;48.144;14.118;2023-03-31T15:27:23;2.45;;;2.28;;
8331;SDS011;4203;48.144;14.118;2023-03-31T15:29:58;2.15;;;2.03;;
8331;SDS011;4203;48.144;14.118;2023-03-31T15:32:28;5.72;;;2.47;;
8331;SDS011;4203;48.144;14.118;2023-03-31T15:34:56;3.88;;;2.65;;
8331;SDS011;4203;48.144;14.118;2023-03-31T15:37:25;3.00;;;2.28;;
8331;SDS011;4203;48.144;14.118;2023-03-31T15:39:57;2.33;;;2.13;;
8331;SDS011;4203;48.144;14.118;2023-03-31T15:42:28;2.08;;;1.88;;
8331;SDS011;4203;48.144;14.118;2023-03-31T15:44:56;1.50;;;1.50;;
8331;SDS011;4203;48.144;14.118;2023-03-31T15:47:46;1.42;;;1.42;;
8331;SDS011;4203;48.144;14.118;2023-03-31T15:50:15;1.73;;;1.60;;
8331;SDS011;4203;48.144;14.118;2023-03-31T15:52:45;2.15;;;1.75;;
8331;SDS011;4203;48.144;14.118;2023-03-31T15:55:23;1.90;;;1.80;;